Terminal Aerodrome Forecast
Issued by NWS Melbourne, FL

Home | Current Version | Previous Version | Text Only | Print | Product List | Glossary On
Versions: 1 2 3 4 5 6 7 8 9 10 11 12 13 14 15 16 17 18 19 20 21 22 23 24 25 26
000
FTUS42 KMLB 051503 AAA
TAFMCO
TAF AMD
KMCO 051503Z 0515/0612 20010G17KT P6SM SCT025 SCT035
      TEMPO 0515/0517 BKN025
     FM060400 30006KT P6SM BKN035 OVC060
     FM061000 35005KT P6SM BKN020 OVC040=

USA.gov is the U.S. government's official web portal to all federal, state and local government web resources and services.